Time;durP1;ratioP1;P1;durP2;ratioP2;P2;SDS_P1;SDS_P2;PMS_P1;PMS_P2;Temp;Humidity;BMP_temperature;BMP_pressure;BME280_temperature;BME280_humidity;BME280_pressure;Samples;Min_cycle;Max_cycle;Signal;HPM_P1;HPM_P2
2024/03/27 00:02:05;;;;;;;8.07;5.40;;;;;;;7.80;100.00;99498.03;5050115;28;21154;-78
2024/03/27 00:04:31;;;;;;;9.50;5.18;;;;;;;7.81;100.00;99489.88;5050087;28;20081;-79
2024/03/27 00:06:57;;;;;;;8.60;5.18;;;;;;;7.65;100.00;99479.75;5049519;28;20029;-78
2024/03/27 00:09:22;;;;;;;7.53;4.45;;;;;;;7.63;100.00;99503.06;5049735;28;20033;-79
2024/03/27 00:11:50;;;;;;;7.97;4.93;;;;;;;7.58;100.00;99466.53;5049517;28;20085;-79
2024/03/27 00:14:19;;;;;;;9.27;4.88;;;;;;;7.88;100.00;99483.69;5049550;28;20036;-79
2024/03/27 00:16:44;;;;;;;9.75;5.63;;;;;;;7.77;100.00;99482.56;5049568;28;20021;-79
2024/03/27 00:19:10;;;;;;;8.48;5.10;;;;;;;7.86;100.00;99483.91;5047964;28;20029;-80
2024/03/27 00:21:36;;;;;;;8.45;4.82;;;;;;;7.84;100.00;99478.00;5049051;28;20052;-79
2024/03/27 00:24:03;;;;;;;7.78;4.75;;;;;;;7.71;100.00;99476.25;5049296;28;20029;-80
2024/03/27 00:26:29;;;;;;;8.15;5.10;;;;;;;7.63;100.00;99472.00;5047852;28;20028;-79
2024/03/27 00:28:55;;;;;;;9.05;5.30;;;;;;;7.66;100.00;99481.38;5049078;28;20040;-79
2024/03/27 00:31:20;;;;;;;8.80;4.85;;;;;;;7.95;100.00;99493.25;5049274;28;20687;-79
2024/03/27 00:33:45;;;;;;;8.43;5.30;;;;;;;7.65;100.00;99485.88;5048877;28;20036;-79
2024/03/27 00:36:11;;;;;;;8.05;5.22;;;;;;;7.64;100.00;99463.03;5047680;28;20118;-79
2024/03/27 00:38:36;;;;;;;11.80;6.47;;;;;;;7.92;100.00;99485.69;5049153;28;20050;-80
2024/03/27 00:41:03;;;;;;;20.10;10.10;;;;;;;7.74;100.00;99472.34;5047550;28;20052;-79
2024/03/27 00:43:29;;;;;;;10.90;7.03;;;;;;;7.79;100.00;99480.50;5048884;28;20068;-79
2024/03/27 00:45:55;;;;;;;12.23;6.00;;;;;;;7.84;100.00;99483.31;5049299;28;20044;-79
2024/03/27 00:48:21;;;;;;;9.45;5.00;;;;;;;7.76;100.00;99496.84;5048992;28;20025;-80
2024/03/27 00:50:47;;;;;;;9.43;5.50;;;;;;;7.60;100.00;99467.16;5049024;28;20036;-79
2024/03/27 00:53:12;;;;;;;8.05;4.88;;;;;;;7.60;100.00;99456.53;5047541;28;20029;-79
2024/03/27 00:55:38;;;;;;;9.20;5.38;;;;;;;7.81;100.00;99479.25;5048024;28;20031;-79
2024/03/27 00:58:03;;;;;;;8.68;5.18;;;;;;;7.89;100.00;99469.41;5048579;28;20445;-79
2024/03/27 01:00:29;;;;;;;8.73;5.07;;;;;;;7.87;100.00;99474.09;5048575;28;20029;-78
2024/03/27 01:02:54;;;;;;;8.05;4.97;;;;;;;7.74;100.00;99459.06;5042070;28;20037;-79
2024/03/27 01:05:19;;;;;;;7.68;4.93;;;;;;;7.90;100.00;99490.41;5041156;28;20398;-79
2024/03/27 01:07:45;;;;;;;7.55;4.78;;;;;;;7.93;100.00;99482.03;5048512;28;20025;-79
2024/03/27 01:10:14;;;;;;;8.05;5.47;;;;;;;7.86;100.00;99462.66;5047431;28;20033;-79
2024/03/27 01:12:40;;;;;;;8.70;4.57;;;;;;;8.07;100.00;99492.53;5048047;28;20037;-79
2024/03/27 01:15:06;;;;;;;8.73;5.22;;;;;;;7.77;100.00;99482.56;5057624;28;20543;-79
2024/03/27 01:17:32;;;;;;;9.85;5.30;;;;;;;7.63;100.00;99481.81;5068465;28;20060;-79
2024/03/27 01:19:58;;;;;;;8.45;5.22;;;;;;;7.72;100.00;99474.41;5054249;28;20079;-79
2024/03/27 01:22:24;;;;;;;8.30;5.40;;;;;;;7.68;100.00;99470.56;5051939;28;20530;-79
2024/03/27 01:24:49;;;;;;;10.32;5.28;;;;;;;7.87;100.00;99482.06;5047995;28;20096;-79
2024/03/27 01:27:14;;;;;;;8.63;5.03;;;;;;;7.67;100.00;99445.88;5048066;28;20029;-79
2024/03/27 01:29:40;;;;;;;9.18;5.18;;;;;;;7.61;100.00;99460.00;5047976;28;20041;-79
2024/03/27 01:32:06;;;;;;;9.18;5.40;;;;;;;7.63;100.00;99460.59;5047945;28;20025;-79
2024/03/27 01:34:32;;;;;;;9.13;5.25;;;;;;;7.60;100.00;99445.91;5047238;28;20084;-79
2024/03/27 01:36:58;;;;;;;8.95;5.47;;;;;;;7.43;100.00;99450.09;5048123;28;20139;-80
2024/03/27 01:39:23;;;;;;;8.82;5.47;;;;;;;7.55;100.00;99448.38;5047337;28;20100;-79
2024/03/27 01:41:49;;;;;;;10.18;5.78;;;;;;;7.81;100.00;99489.06;5048043;28;20448;-79
2024/03/27 01:44:19;;;;;;;10.10;6.38;;;;;;;7.76;100.00;99475.59;5045054;28;20099;-80
2024/03/27 01:46:47;;;;;;;10.68;5.97;;;;;;;7.67;100.00;99476.91;5055475;28;20037;-79
2024/03/27 01:49:14;;;;;;;10.05;6.35;;;;;;;7.66;100.00;99481.38;5034751;28;20406;-78
2024/03/27 01:51:40;;;;;;;13.15;6.65;;;;;;;7.58;100.00;99479.81;5046418;28;20033;-79
2024/03/27 01:54:06;;;;;;;11.25;6.85;;;;;;;7.29;100.00;99461.81;5047497;28;20037;-79
2024/03/27 01:56:32;;;;;;;12.98;7.40;;;;;;;7.35;100.00;99490.13;5047589;28;20118;-79
2024/03/27 01:59:00;;;;;;;12.75;7.45;;;;;;;7.31;100.00;99484.44;5047509;28;20035;-79
2024/03/27 02:01:29;;;;;;;12.35;7.10;;;;;;;7.20;100.00;99493.88;5046238;28;20029;-78
2024/03/27 02:04:01;;;;;;;11.88;7.32;;;;;;;7.12;100.00;99462.28;5047369;28;20041;-79
2024/03/27 02:06:27;;;;;;;11.32;7.13;;;;;;;7.21;100.00;99466.34;5047083;28;20029;-78
2024/03/27 02:08:53;;;;;;;12.02;7.05;;;;;;;7.32;100.00;99480.75;5047169;28;20035;-79
2024/03/27 02:11:19;;;;;;;12.05;6.88;;;;;;;7.31;100.00;99491.56;5046072;28;20037;-78
2024/03/27 02:13:45;;;;;;;13.98;7.63;;;;;;;7.20;100.00;99480.63;5048908;28;20490;-79
2024/03/27 02:16:10;;;;;;;14.02;7.55;;;;;;;7.28;100.00;99476.91;5046628;28;20029;-78
2024/03/27 02:18:36;;;;;;;12.32;7.63;;;;;;;7.11;100.00;99484.53;5047202;28;20021;-78
2024/03/27 02:21:23;;;;;;;12.02;7.63;;;;;;;7.16;100.00;99482.06;5047835;28;20035;-78
2024/03/27 02:23:58;;;;;;;12.77;7.50;;;;;;;7.05;100.00;99472.13;5046331;28;20044;-79
2024/03/27 02:26:31;;;;;;;12.13;7.22;;;;;;;7.07;100.00;99461.28;5043255;28;20283;-79
2024/03/27 02:28:56;;;;;;;13.02;7.00;;;;;;;7.02;100.00;99459.28;5047636;28;20045;-78
2024/03/27 02:31:22;;;;;;;12.23;7.78;;;;;;;7.26;100.00;99478.97;5043565;28;20102;-78
2024/03/27 02:33:47;;;;;;;11.70;6.90;;;;;;;7.17;100.00;99483.69;5046344;28;20025;-77
2024/03/27 02:36:12;;;;;;;14.77;8.68;;;;;;;7.20;100.00;99493.88;5044674;28;20040;-79
2024/03/27 02:38:38;;;;;;;13.90;8.18;;;;;;;7.27;100.00;99508.94;5047467;28;20029;-78
2024/03/27 02:41:03;;;;;;;13.30;8.18;;;;;;;7.22;100.00;99475.09;5043046;28;20037;-79
2024/03/27 02:43:29;;;;;;;14.85;7.35;;;;;;;7.35;100.00;99474.22;5046826;28;20033;-79
2024/03/27 02:45:54;;;;;;;12.77;7.53;;;;;;;7.46;100.00;99494.78;5045520;28;20542;-79
2024/03/27 02:48:20;;;;;;;11.50;6.78;;;;;;;7.40;100.00;99495.63;5046793;28;20052;-79
2024/03/27 02:50:45;;;;;;;11.70;7.03;;;;;;;7.44;100.00;99494.19;5049001;28;20075;-78
2024/03/27 02:53:10;;;;;;;11.48;6.40;;;;;;;7.32;100.00;99479.97;5046757;28;20042;-79
2024/03/27 02:55:36;;;;;;;14.82;7.63;;;;;;;7.63;100.00;99493.25;5045693;28;20032;-79
2024/03/27 02:58:01;;;;;;;12.63;7.78;;;;;;;7.21;100.00;99469.00;5046904;28;20482;-79
2024/03/27 03:00:27;;;;;;;12.60;8.15;;;;;;;7.22;100.00;99486.53;5046021;28;20036;-78
2024/03/27 03:02:52;;;;;;;17.80;10.35;;;;;;;7.23;100.00;99476.72;5047007;28;20029;-79
2024/03/27 03:05:17;;;;;;;20.73;12.18;;;;;;;7.06;100.00;99470.28;5046568;28;20399;-78
2024/03/27 03:07:44;;;;;;;36.42;19.92;;;;;;;7.05;100.00;99464.16;5045272;28;20033;-78
2024/03/27 03:10:09;;;;;;;35.95;23.17;;;;;;;6.88;100.00;99457.69;5044371;28;20056;-78
2024/03/27 03:12:35;;;;;;;19.25;12.85;;;;;;;7.30;100.00;99480.16;5047065;28;20526;-79
2024/03/27 03:15:00;;;;;;;20.98;14.10;;;;;;;7.20;100.00;99483.25;5046745;28;20413;-79
2024/03/27 03:17:26;;;;;;;19.42;13.32;;;;;;;7.24;100.00;99471.22;5047568;28;20025;-78
2024/03/27 03:19:51;;;;;;;15.85;10.48;;;;;;;7.19;100.00;99464.91;5049382;28;20021;-78
2024/03/27 03:22:16;;;;;;;16.25;9.30;;;;;;;7.26;100.00;99462.25;5050503;28;20409;-79
2024/03/27 03:24:43;;;;;;;11.35;7.40;;;;;;;7.24;100.00;99484.47;5050414;28;20048;-80
2024/03/27 03:27:09;;;;;;;13.38;8.45;;;;;;;7.50;100.00;99481.88;5050280;28;20021;-79
2024/03/27 03:29:34;;;;;;;14.25;8.63;;;;;;;7.37;100.00;99475.63;5050109;28;20055;-78
2024/03/27 03:31:59;;;;;;;13.75;8.57;;;;;;;7.41;100.00;99452.16;5049968;28;20108;-80
2024/03/27 03:34:25;;;;;;;13.25;7.65;;;;;;;7.30;100.00;99474.06;5045559;28;20390;-79
2024/03/27 03:36:50;;;;;;;11.93;7.93;;;;;;;7.45;100.00;99501.09;5050220;28;20020;-79
2024/03/27 03:39:17;;;;;;;13.25;7.55;;;;;;;7.60;100.00;99508.75;5046830;28;20104;-78
2024/03/27 03:41:42;;;;;;;13.18;7.75;;;;;;;7.56;100.00;99476.56;5046980;28;20075;-79
2024/03/27 03:44:08;;;;;;;14.75;8.27;;;;;;;7.53;100.00;99457.59;5050163;28;20028;-79
2024/03/27 03:46:33;;;;;;;12.95;8.40;;;;;;;7.74;100.00;99488.28;5049839;28;20025;-79
2024/03/27 03:48:58;;;;;;;17.05;8.75;;;;;;;7.64;100.00;99512.63;5049169;28;20476;-79
2024/03/27 03:51:24;;;;;;;12.98;8.90;;;;;;;7.93;100.00;99511.22;5044162;28;20036;-79
2024/03/27 03:53:49;;;;;;;14.70;9.63;;;;;;;7.88;100.00;99505.75;5048271;28;20549;-79
2024/03/27 03:56:15;;;;;;;15.45;9.48;;;;;;;7.73;100.00;99486.66;5050192;28;20050;-79
2024/03/27 03:58:40;;;;;;;18.67;12.43;;;;;;;8.08;100.00;99520.72;5049671;28;20032;-80
2024/03/27 04:01:06;;;;;;;12.63;7.57;;;;;;;7.93;100.00;99503.25;5049553;28;20490;-79
2024/03/27 04:03:32;;;;;;;20.77;14.07;;;;;;;8.01;100.00;99505.66;5049204;28;20043;-79
2024/03/27 04:05:59;;;;;;;12.98;7.97;;;;;;;7.93;100.00;99516.53;5049727;28;20751;-79
2024/03/27 04:08:24;;;;;;;14.93;9.30;;;;;;;8.04;100.00;99513.19;5049874;28;20044;-79
2024/03/27 04:10:49;;;;;;;16.00;10.18;;;;;;;7.76;100.00;99492.34;5048048;28;20025;-79
2024/03/27 04:13:15;;;;;;;24.38;16.23;;;;;;;8.03;100.00;99492.97;5038931;28;20037;-80
2024/03/27 04:15:42;;;;;;;22.45;15.43;;;;;;;7.91;100.00;99496.56;5049118;28;20021;-79
2024/03/27 04:18:08;;;;;;;22.20;13.32;;;;;;;7.99;100.00;99510.38;5056834;28;20036;-79
2024/03/27 04:20:34;;;;;;;24.02;17.52;;;;;;;7.96;100.00;99516.09;5068038;28;20032;-80
2024/03/27 04:22:59;;;;;;;15.10;10.48;;;;;;;7.87;100.00;99500.63;5044810;28;20067;-80
2024/03/27 04:25:25;;;;;;;14.65;9.15;;;;;;;8.09;100.00;99525.00;5050315;28;20049;-79
2024/03/27 04:27:51;;;;;;;15.25;9.68;;;;;;;7.69;100.00;99494.22;5048990;28;20060;-80
2024/03/27 04:30:19;;;;;;;12.95;9.63;;;;;;;8.08;100.00;99520.72;5048415;28;20072;-79
2024/03/27 04:32:45;;;;;;;15.70;8.60;;;;;;;8.08;100.00;99534.00;5038975;28;20087;-80
2024/03/27 04:35:10;;;;;;;13.30;8.00;;;;;;;7.85;100.00;99532.72;5042788;28;20405;-80
2024/03/27 04:37:36;;;;;;;13.30;8.52;;;;;;;7.90;100.00;99526.78;5048728;28;20032;-79
2024/03/27 04:40:11;;;;;;;19.13;11.63;;;;;;;7.72;100.00;99501.75;5049318;28;20036;-79
2024/03/27 04:42:37;;;;;;;19.17;12.30;;;;;;;7.95;100.00;99517.13;5048461;28;20028;-79
2024/03/27 04:45:08;;;;;;;17.42;11.18;;;;;;;8.03;100.00;99500.94;5051099;28;20159;-78
2024/03/27 04:47:37;;;;;;;18.77;12.52;;;;;;;8.28;100.00;99525.91;5048563;28;20021;-79
2024/03/27 04:50:03;;;;;;;16.77;10.60;;;;;;;8.25;100.00;99527.94;5048813;28;20029;-80
2024/03/27 04:52:29;;;;;;;15.70;9.20;;;;;;;8.01;100.00;99510.16;5048050;28;20021;-79
2024/03/27 04:54:54;;;;;;;15.43;8.80;;;;;;;8.12;100.00;99530.69;5046697;28;20043;-79
2024/03/27 04:57:20;;;;;;;13.70;8.30;;;;;;;8.11;100.00;99496.38;5048391;28;20384;-80
2024/03/27 04:59:45;;;;;;;17.92;12.48;;;;;;;8.21;100.00;99521.44;5048370;28;20052;-79
2024/03/27 05:02:11;;;;;;;19.13;11.80;;;;;;;8.31;100.00;99528.91;5047024;28;20414;-79
2024/03/27 05:04:37;;;;;;;15.27;8.52;;;;;;;8.39;100.00;99543.78;5046107;28;20142;-79
2024/03/27 05:07:03;;;;;;;12.70;7.20;;;;;;;8.64;100.00;99514.53;5048572;28;20418;-79
2024/03/27 05:09:30;;;;;;;12.07;7.78;;;;;;;8.60;100.00;99547.91;5048195;28;20037;-79
2024/03/27 05:11:57;;;;;;;13.88;8.23;;;;;;;8.75;100.00;99547.59;5048635;28;20021;-80
2024/03/27 05:14:23;;;;;;;15.48;9.52;;;;;;;8.58;100.00;99547.31;5046203;28;20033;-80
2024/03/27 05:16:48;;;;;;;19.17;11.60;;;;;;;8.72;100.00;99535.53;5048013;28;20025;-79
2024/03/27 05:19:14;;;;;;;19.27;11.68;;;;;;;8.59;100.00;99528.50;5046823;28;20098;-78
2024/03/27 05:21:39;;;;;;;15.77;9.40;;;;;;;8.67;100.00;99548.66;5048206;28;20545;-79
2024/03/27 05:24:05;;;;;;;16.17;8.93;;;;;;;8.78;100.00;99550.59;5047935;28;20098;-78
2024/03/27 05:26:30;;;;;;;14.73;9.55;;;;;;;8.43;100.00;99535.16;5047873;28;20103;-78
2024/03/27 05:28:56;;;;;;;13.95;8.25;;;;;;;8.67;100.00;99538.03;5046496;28;20044;-76
2024/03/27 05:31:22;;;;;;;15.70;8.82;;;;;;;8.52;100.00;99503.00;5040849;28;20091;-78
2024/03/27 05:33:47;;;;;;;16.17;9.38;;;;;;;8.70;100.00;99542.91;5043902;28;20033;-78
2024/03/27 05:36:13;;;;;;;15.20;8.32;;;;;;;8.59;100.00;99551.59;5046703;28;20449;-78
2024/03/27 05:38:39;;;;;;;14.38;8.43;;;;;;;8.67;100.00;99554.00;5047708;28;20470;-78
2024/03/27 05:41:04;;;;;;;15.30;9.15;;;;;;;8.58;100.00;99539.34;5047962;28;20025;-79
2024/03/27 05:43:30;;;;;;;14.70;8.20;;;;;;;8.73;100.00;99570.91;5043526;28;20399;-79
2024/03/27 05:45:56;;;;;;;14.32;8.43;;;;;;;8.82;100.00;99549.13;5046890;28;20440;-79
2024/03/27 05:48:21;;;;;;;14.32;8.75;;;;;;;8.65;100.00;99511.66;5065717;28;20028;-79
2024/03/27 05:50:47;;;;;;;12.00;8.27;;;;;;;8.68;100.00;99530.88;5047912;28;20029;-79
2024/03/27 05:53:12;;;;;;;13.73;7.63;;;;;;;8.75;100.00;99524.47;5047422;28;20029;-79
2024/03/27 05:55:38;;;;;;;13.50;8.10;;;;;;;8.74;100.00;99525.47;5050058;28;20106;-79
2024/03/27 05:58:04;;;;;;;13.85;7.70;;;;;;;8.94;100.00;99522.63;5047422;28;20029;-79
2024/03/27 06:00:29;;;;;;;14.00;7.40;;;;;;;9.06;100.00;99528.03;5047409;28;20025;-79
2024/03/27 06:02:54;;;;;;;11.75;6.95;;;;;;;9.21;100.00;99551.56;5047792;28;20166;-79
2024/03/27 06:05:20;;;;;;;14.90;7.80;;;;;;;9.33;100.00;99549.00;5041645;28;20448;-79
2024/03/27 06:07:46;;;;;;;13.10;7.75;;;;;;;9.72;100.00;99549.50;5047618;28;20063;-79
2024/03/27 06:10:12;;;;;;;14.07;8.35;;;;;;;9.72;100.00;99528.22;5047434;28;20033;-79
2024/03/27 06:12:37;;;;;;;11.93;7.05;;;;;;;9.86;100.00;99573.06;5046144;28;20498;-79
2024/03/27 06:15:04;;;;;;;13.35;7.60;;;;;;;10.02;100.00;99568.97;5042876;28;20094;-81
2024/03/27 06:17:31;;;;;;;14.98;8.13;;;;;;;9.88;100.00;99572.84;5045483;28;20033;-77
2024/03/27 06:19:56;;;;;;;15.15;8.30;;;;;;;9.64;100.00;99535.50;5046895;28;20455;-79
2024/03/27 06:22:22;;;;;;;12.93;7.82;;;;;;;9.93;100.00;99562.34;5045981;28;20021;-78
2024/03/27 06:24:49;;;;;;;16.30;9.10;;;;;;;9.70;100.00;99562.25;5046586;28;20021;-78
2024/03/27 06:27:14;;;;;;;13.02;7.70;;;;;;;9.54;100.00;99545.88;5046872;28;20135;-79
2024/03/27 06:29:39;;;;;;;13.25;8.35;;;;;;;9.75;100.00;99562.41;5046568;28;20148;-78
2024/03/27 06:32:06;;;;;;;15.05;8.70;;;;;;;9.68;100.00;99569.66;5044785;28;20079;-79
2024/03/27 06:34:32;;;;;;;12.75;8.50;;;;;;;9.76;100.00;99574.66;5044108;28;20406;-79
2024/03/27 06:36:57;;;;;;;15.88;9.55;;;;;;;9.93;100.00;99570.34;5046465;28;20521;-80
2024/03/27 06:39:22;;;;;;;15.25;8.77;;;;;;;9.83;100.00;99559.41;5046356;28;20094;-79
2024/03/27 06:41:48;;;;;;;15.30;8.88;;;;;;;9.72;100.00;99562.81;5043708;28;20021;-79
2024/03/27 06:44:15;;;;;;;15.98;8.20;;;;;;;9.67;100.00;99565.38;5046132;28;20517;-80
2024/03/27 06:46:40;;;;;;;15.18;8.27;;;;;;;9.72;100.00;99581.47;5044121;28;20032;-80
2024/03/27 06:49:18;;;;;;;18.92;9.75;;;;;;;9.55;100.00;99539.50;5047223;28;20154;-79
2024/03/27 06:51:47;;;;;;;16.27;9.80;;;;;;;9.69;100.00;99579.28;5046062;28;20037;-80
2024/03/27 06:54:12;;;;;;;15.27;9.10;;;;;;;9.32;100.00;99520.78;5046787;28;20309;-79
2024/03/27 06:56:38;;;;;;;15.30;9.90;;;;;;;9.76;100.00;99538.19;5047875;28;20029;-80
2024/03/27 06:59:03;;;;;;;16.73;8.95;;;;;;;9.84;100.00;99558.38;5049445;28;20041;-79
2024/03/27 07:01:29;;;;;;;14.63;8.95;;;;;;;9.65;100.00;99555.75;5048969;28;20124;-80
2024/03/27 07:03:55;;;;;;;15.32;8.80;;;;;;;9.61;100.00;99557.22;5048447;28;20113;-78
2024/03/27 07:06:20;;;;;;;17.17;9.02;;;;;;;10.00;100.00;99565.72;5036310;28;20098;-79
2024/03/27 07:08:46;;;;;;;16.30;9.55;;;;;;;10.25;100.00;99556.72;5050483;28;20037;-79
2024/03/27 07:11:11;;;;;;;12.50;8.07;;;;;;;10.36;100.00;99563.16;5050443;28;20158;-79
2024/03/27 07:13:36;;;;;;;13.65;8.40;;;;;;;10.55;100.00;99555.88;5049957;28;20025;-78
2024/03/27 07:16:03;;;;;;;14.57;8.52;;;;;;;10.89;100.00;99591.59;5049443;28;20032;-79
2024/03/27 07:18:29;;;;;;;14.05;8.57;;;;;;;10.87;100.00;99609.69;5045785;28;20098;-78
2024/03/27 07:20:55;;;;;;;14.57;8.80;;;;;;;11.13;100.00;99600.38;5046098;28;20028;-78
2024/03/27 07:23:21;;;;;;;12.40;8.00;;;;;;;11.18;100.00;99600.50;5050038;28;20039;-78
2024/03/27 07:25:46;;;;;;;14.32;8.70;;;;;;;11.44;100.00;99595.69;5037995;28;20029;-79
2024/03/27 07:28:12;;;;;;;14.60;7.70;;;;;;;10.90;100.00;99571.88;5047511;28;20044;-79
2024/03/27 07:30:37;;;;;;;15.18;8.90;;;;;;;11.33;100.00;99564.50;5050045;28;20092;-79
2024/03/27 07:33:03;;;;;;;14.82;8.63;;;;;;;10.83;100.00;99574.69;5039084;28;20493;-79
2024/03/27 07:35:28;;;;;;;14.60;8.68;;;;;;;11.05;100.00;99574.06;5047292;28;20035;-79
2024/03/27 07:37:54;;;;;;;15.93;9.05;;;;;;;10.88;100.00;99586.50;5044983;28;20029;-79
2024/03/27 07:40:19;;;;;;;16.15;9.30;;;;;;;10.88;100.00;99571.31;5050405;28;20398;-78
2024/03/27 07:42:45;;;;;;;15.45;9.95;;;;;;;11.07;100.00;99553.28;5049489;28;20072;-79
2024/03/27 07:45:10;;;;;;;14.38;8.30;;;;;;;11.16;100.00;99594.59;5043583;28;20029;-79
2024/03/27 07:47:36;;;;;;;13.48;8.05;;;;;;;10.79;100.00;99562.03;5049144;28;20100;-78
2024/03/27 07:50:02;;;;;;;12.63;7.70;;;;;;;11.78;100.00;99591.28;5049935;28;20028;-78
2024/03/27 07:52:28;;;;;;;13.75;8.40;;;;;;;11.92;100.00;99597.19;5049946;28;20032;-79
2024/03/27 07:54:53;;;;;;;14.95;9.32;;;;;;;11.74;100.00;99587.47;5040398;28;20033;-78
2024/03/27 07:57:19;;;;;;;13.43;8.68;;;;;;;12.37;100.00;99599.06;5049099;28;20032;-79
2024/03/27 07:59:44;;;;;;;15.20;8.68;;;;;;;12.67;100.00;99603.28;5049796;28;20596;-79
2024/03/27 08:02:09;;;;;;;15.70;8.68;;;;;;;12.61;100.00;99617.66;5048352;28;20024;-79
2024/03/27 08:04:35;;;;;;;12.73;8.00;;;;;;;12.36;100.00;99602.81;5036350;28;20475;-78
2024/03/27 08:07:00;;;;;;;13.75;8.20;;;;;;;12.68;100.00;99604.09;5048651;28;20028;-79
2024/03/27 08:09:26;;;;;;;13.65;8.75;;;;;;;12.54;100.00;99571.50;5049393;28;20040;-78
2024/03/27 08:11:51;;;;;;;13.23;8.40;;;;;;;12.66;100.00;99591.75;5049600;28;20529;-80
2024/03/27 08:14:17;;;;;;;14.20;8.93;;;;;;;12.70;100.00;99569.88;5048981;28;20044;-79
2024/03/27 08:16:42;;;;;;;12.50;7.45;;;;;;;12.91;100.00;99570.97;5048702;28;20056;-78
2024/03/27 08:19:07;;;;;;;13.65;8.90;;;;;;;12.60;100.00;99562.50;5048050;28;20118;-79
2024/03/27 08:21:33;;;;;;;13.57;8.23;;;;;;;12.98;100.00;99599.19;5047849;28;20045;-78
2024/03/27 08:23:58;;;;;;;13.00;7.93;;;;;;;12.92;100.00;99591.34;5048620;28;20542;-78
2024/03/27 08:26:27;;;;;;;13.27;8.77;;;;;;;13.03;100.00;99574.38;5049238;28;20072;-78
2024/03/27 08:28:52;;;;;;;14.23;7.78;;;;;;;13.01;100.00;99539.81;5042070;28;20464;-79
2024/03/27 08:31:18;;;;;;;13.07;8.07;;;;;;;13.40;100.00;99544.34;5049020;28;20024;-79
2024/03/27 08:33:44;;;;;;;14.50;8.13;;;;;;;13.71;100.00;99563.44;5035110;28;20166;-79
2024/03/27 08:36:10;;;;;;;13.60;8.13;;;;;;;13.78;100.00;99588.19;5047876;28;20383;-79
2024/03/27 08:38:35;;;;;;;15.88;10.15;;;;;;;14.04;100.00;99563.25;5048808;28;20714;-79
2024/03/27 08:41:03;;;;;;;11.27;7.60;;;;;;;13.51;100.00;99562.16;5048998;28;20048;-78
2024/03/27 08:43:28;;;;;;;13.30;7.53;;;;;;;13.54;100.00;99585.75;5048723;28;20029;-79
2024/03/27 08:45:53;;;;;;;18.23;9.20;;;;;;;13.30;100.00;99579.03;5044404;28;20040;-79
2024/03/27 08:48:19;;;;;;;13.43;8.52;;;;;;;13.50;100.00;99583.81;5041401;28;20040;-80
2024/03/27 08:50:44;;;;;;;12.85;7.72;;;;;;;13.77;100.00;99583.88;5036089;28;20028;-79
2024/03/27 08:53:10;;;;;;;15.88;9.40;;;;;;;13.39;100.00;99566.84;5042400;28;20032;-79
2024/03/27 08:55:40;;;;;;;13.68;9.05;;;;;;;13.67;100.00;99568.50;5036948;28;20821;-80
2024/03/27 08:58:07;;;;;;;11.70;7.82;;;;;;;13.62;100.00;99577.28;5032689;28;20045;-80
2024/03/27 09:00:32;;;;;;;12.13;7.90;;;;;;;13.70;100.00;99546.56;5048277;28;20060;-81
2024/03/27 09:02:57;;;;;;;11.68;8.20;;;;;;;13.85;100.00;99559.28;5044275;28;20064;-79
2024/03/27 09:05:23;;;;;;;13.68;9.30;;;;;;;13.70;100.00;99567.19;5048024;28;20036;-79
2024/03/27 09:07:48;;;;;;;15.45;9.93;;;;;;;14.03;100.00;99577.69;5042950;28;20112;-79
2024/03/27 09:10:14;;;;;;;12.85;9.23;;;;;;;14.49;100.00;99584.56;5047022;28;20112;-79
2024/03/27 09:12:39;;;;;;;12.18;8.82;;;;;;;14.47;100.00;99577.56;5045484;28;20033;-80
2024/03/27 09:15:05;;;;;;;12.63;8.80;;;;;;;13.98;100.00;99580.34;5028839;28;20052;-79
2024/03/27 09:17:31;;;;;;;12.80;8.52;;;;;;;14.44;100.00;99571.88;5046051;28;20128;-80
2024/03/27 09:19:57;;;;;;;12.05;9.40;;;;;;;14.51;100.00;99577.06;5048957;28;20035;-80
2024/03/27 09:22:22;;;;;;;12.57;8.35;;;;;;;14.80;100.00;99574.88;5048446;28;20052;-79
2024/03/27 09:24:47;;;;;;;13.13;8.35;;;;;;;14.54;100.00;99569.28;5048333;28;20025;-79
2024/03/27 09:27:13;;;;;;;12.90;8.30;;;;;;;14.35;100.00;99576.13;5047335;28;20421;-79
2024/03/27 09:29:38;;;;;;;12.10;7.30;;;;;;;14.60;100.00;99567.47;5048554;28;20052;-79
2024/03/27 09:32:03;;;;;;;12.38;8.57;;;;;;;15.15;100.00;99555.47;5050798;28;20434;-80
2024/03/27 09:34:32;;;;;;;13.52;9.60;;;;;;;15.31;100.00;99556.34;5068702;28;20021;-80
2024/03/27 09:36:58;;;;;;;12.93;8.90;;;;;;;15.15;100.00;99576.94;5062122;28;20036;-80
2024/03/27 09:39:23;;;;;;;15.27;9.68;;;;;;;15.07;100.00;99585.50;5059803;28;20036;-79
2024/03/27 09:41:49;;;;;;;12.43;8.57;;;;;;;15.02;100.00;99582.81;5055585;28;20034;-81
2024/03/27 09:44:18;;;;;;;12.38;8.13;;;;;;;14.68;100.00;99564.31;5062498;28;20662;-80
2024/03/27 09:46:43;;;;;;;11.77;8.85;;;;;;;14.30;100.00;99543.88;5061022;28;20032;-79
2024/03/27 09:49:13;;;;;;;12.75;8.25;;;;;;;14.70;100.00;99554.13;5055475;28;20064;-79
2024/03/27 09:51:40;;;;;;;12.65;9.63;;;;;;;14.94;100.00;99577.91;5058038;28;20482;-79
2024/03/27 09:54:06;;;;;;;10.25;7.78;;;;;;;14.84;100.00;99539.19;5051743;28;20112;-79
2024/03/27 09:56:36;;;;;;;12.85;8.25;;;;;;;15.23;100.00;99568.41;5050299;28;20091;-79
2024/03/27 09:59:02;;;;;;;10.85;7.75;;;;;;;15.63;100.00;99550.81;5057641;28;20498;-79
2024/03/27 10:01:27;;;;;;;13.90;8.20;;;;;;;16.07;100.00;99566.50;5042455;28;20112;-77
2024/03/27 10:03:54;;;;;;;11.35;7.68;;;;;;;16.14;100.00;99538.53;5046376;28;20014;-78
2024/03/27 10:06:19;;;;;;;12.50;8.20;;;;;;;15.46;100.00;99555.59;5041765;28;20025;-78
2024/03/27 10:08:46;;;;;;;13.00;8.82;;;;;;;15.04;100.00;99564.56;5045040;28;20035;-78
2024/03/27 10:11:12;;;;;;;14.50;9.10;;;;;;;14.66;100.00;99532.38;5053887;28;20048;-78
2024/03/27 10:13:37;;;;;;;14.35;9.45;;;;;;;15.32;100.00;99563.31;5051412;28;20025;-78
2024/03/27 10:16:03;;;;;;;16.55;9.52;;;;;;;15.44;100.00;99573.84;5050075;28;20124;-79
2024/03/27 10:18:29;;;;;;;13.77;8.95;;;;;;;14.82;100.00;99568.16;5052781;28;20051;-79
2024/03/27 10:20:54;;;;;;;13.82;9.45;;;;;;;15.12;100.00;99539.88;5052600;28;20462;-78
2024/03/27 10:23:20;;;;;;;13.90;9.50;;;;;;;15.65;100.00;99543.28;5052153;28;20029;-78
2024/03/27 10:25:47;;;;;;;13.48;8.52;;;;;;;15.37;100.00;99546.44;5050673;28;20044;-79
2024/03/27 10:28:13;;;;;;;15.55;9.23;;;;;;;15.77;100.00;99528.81;5049715;28;20410;-78
2024/03/27 10:30:38;;;;;;;13.98;9.05;;;;;;;15.61;100.00;99557.50;5053091;28;20451;-78
2024/03/27 10:33:04;;;;;;;14.07;9.38;;;;;;;15.22;100.00;99520.28;5052122;28;20031;-79
2024/03/27 10:35:32;;;;;;;14.00;9.82;;;;;;;15.78;100.00;99547.38;5052948;28;20025;-79
2024/03/27 10:38:02;;;;;;;13.80;9.32;;;;;;;15.19;100.00;99553.88;5051198;28;20029;-79
2024/03/27 10:40:29;;;;;;;14.00;9.70;;;;;;;15.26;100.00;99514.16;5052118;28;20115;-79
2024/03/27 10:43:03;;;;;;;17.20;10.07;;;;;;;15.53;100.00;99531.97;5052127;28;20116;-80
2024/03/27 10:45:31;;;;;;;15.95;10.85;;;;;;;15.75;100.00;99521.03;5051761;28;20036;-80
2024/03/27 10:48:00;;;;;;;15.00;11.32;;;;;;;15.68;100.00;99518.56;5052333;28;20032;-80
2024/03/27 10:50:27;;;;;;;17.30;11.75;;;;;;;15.34;100.00;99477.09;5043104;28;20028;-79
2024/03/27 10:52:53;;;;;;;17.58;11.20;;;;;;;16.15;100.00;99524.03;5051237;28;20020;-80
2024/03/27 10:55:18;;;;;;;14.15;10.93;;;;;;;15.73;100.00;99507.03;5049962;28;20118;-79
2024/03/27 10:57:45;;;;;;;16.88;12.10;;;;;;;15.91;100.00;99529.91;5052269;28;20406;-80
2024/03/27 11:00:12;;;;;;;14.30;11.00;;;;;;;15.85;100.00;99499.56;5037479;28;20025;-80
2024/03/27 11:02:49;;;;;;;17.45;11.95;;;;;;;16.17;100.00;99532.63;5042924;28;20036;-79
2024/03/27 11:05:15;;;;;;;15.43;10.85;;;;;;;16.57;100.00;99514.84;5039637;28;20092;-80
2024/03/27 11:07:41;;;;;;;16.90;11.10;;;;;;;17.35;100.00;99502.78;5044340;28;20391;-80
2024/03/27 11:10:07;;;;;;;14.73;10.65;;;;;;;17.76;100.00;99489.84;5048875;28;20067;-80
2024/03/27 11:12:33;;;;;;;12.55;8.35;;;;;;;16.85;100.00;99511.56;5038926;28;20117;-80
2024/03/27 11:15:03;;;;;;;16.63;9.15;;;;;;;16.61;100.00;99505.13;5041756;28;20040;-80
2024/03/27 11:17:29;;;;;;;15.02;9.38;;;;;;;17.14;100.00;99507.44;5035883;28;20032;-80